Ostrander, Minnesota
Current Conditions -  °F | °C
As of 11:55 AM on Friday 21 Nov 2014 (Local Time) from KFKA Reporting Station
Clear Clear  
Wind Chill:   Ceiling: Unl
Heat Index: 21°   Visibility: 10mi
Dew Point: 10°   Wind: 17mph
Humidity: 62%   Direction: 190°S
Pressure: 30.21"   Gusts: NA
Location:  43.61°N, 92.43°W
Report Text: KFKA 211755Z AUTO 19015KT 10SM CLR M06/M12 A3021 RMK AO2 T10611124 11061 21171
Loading
Personal Weather Stations






























Interactive Weather Map New forecast layout! Learn more

10-Day Weather Forecast

Advertisements
Track Severe Weather on mobile